Time;durP1;ratioP1;P1;durP2;ratioP2;P2;SDS_P1;SDS_P2;PMS_P1;PMS_P2;Temp;Humidity;BMP_temperature;BMP_pressure;BME280_temperature;BME280_humidity;BME280_pressure;Samples;Min_cycle;Max_cycle;Signal;HPM_P1;HPM_P2
2023/01/04 00:00:45;;;;;;;20.20;3.22;;;;;;;;;;5067653;28;20060;-79
2023/01/04 00:03:11;;;;;;;10.20;2.80;;;;;;;;;;5067517;28;20040;-79
2023/01/04 00:05:37;;;;;;;12.63;3.13;;;;;;;;;;5066766;28;20029;-80
2023/01/04 00:08:03;;;;;;;11.48;2.75;;;;;;;;;;5048907;28;20051;-78
2023/01/04 00:10:29;;;;;;;10.95;2.53;;;;;;;;;;5048245;28;20102;-79
2023/01/04 00:12:55;;;;;;;11.32;3.15;;;;;;;;;;5065714;28;20490;-78
2023/01/04 00:15:21;;;;;;;13.70;2.60;;;;;;;;;;5066848;28;20033;-74
2023/01/04 00:17:47;;;;;;;7.82;2.28;;;;;;;;;;5071477;28;20040;-77
2023/01/04 00:20:13;;;;;;;10.68;2.88;;;;;;;;;;5076081;28;20093;-76
2023/01/04 00:22:38;;;;;;;11.63;2.80;;;;;;;;;;5077303;28;20017;-76
2023/01/04 00:25:05;;;;;;;10.43;2.60;;;;;;;;;;5076498;28;20032;-78
2023/01/04 00:27:31;;;;;;;11.43;2.95;;;;;;;;;;5073739;28;20032;-78
2023/01/04 00:29:57;;;;;;;14.45;2.40;;;;;;;;;;5073541;28;20033;-77
2023/01/04 00:32:22;;;;;;;11.20;2.20;;;;;;;;;;5075615;28;20029;-77
2023/01/04 00:34:48;;;;;;;8.07;2.20;;;;;;;;;;5051223;28;20051;-81
2023/01/04 00:37:14;;;;;;;10.75;3.03;;;;;;;;;;5068601;28;20021;-80
2023/01/04 00:39:40;;;;;;;11.73;2.30;;;;;;;;;;5067181;28;20028;-78
2023/01/04 00:42:06;;;;;;;12.77;2.40;;;;;;;;;;5066592;28;20029;-79
2023/01/04 00:44:33;;;;;;;10.68;2.30;;;;;;;;;;5049452;28;20060;-80
2023/01/04 00:47:00;;;;;;;9.10;2.45;;;;;;;;;;5067880;28;20051;-77
2023/01/04 00:49:26;;;;;;;13.60;2.38;;;;;;;;;;5074369;28;20021;-77
2023/01/04 00:51:52;;;;;;;16.50;3.20;;;;;;;;;;5073535;28;20052;-78
2023/01/04 00:54:18;;;;;;;10.73;2.40;;;;;;;;;;5056930;28;20028;-78
2023/01/04 00:56:45;;;;;;;17.50;2.40;;;;;;;;;;5073732;28;20021;-79
2023/01/04 00:59:15;;;;;;;10.43;2.35;;;;;;;;;;5053790;28;20032;-78
2023/01/04 01:01:41;;;;;;;25.05;9.68;;;;;;;;;;5072891;28;20008;-77
2023/01/04 01:04:09;;;;;;;11.60;2.30;;;;;;;;;;5068840;28;20430;-80
2023/01/04 01:06:35;;;;;;;7.50;2.08;;;;;;;;;;5055022;28;20017;-78
2023/01/04 01:09:01;;;;;;;5.75;2.28;;;;;;;;;;5076246;28;20017;-76
2023/01/04 01:11:28;;;;;;;11.35;2.50;;;;;;;;;;5076905;28;20017;-76
2023/01/04 01:13:54;;;;;;;12.35;2.20;;;;;;;;;;5086177;22;20048;-73
2023/01/04 01:16:21;;;;;;;18.05;2.90;;;;;;;;;;5079188;28;20032;-74
2023/01/04 01:18:47;;;;;;;14.02;2.60;;;;;;;;;;5078212;28;20024;-72
2023/01/04 01:21:15;;;;;;;7.70;2.05;;;;;;;;;;5092650;28;20033;-73
2023/01/04 01:23:42;;;;;;;16.08;2.63;;;;;;;;;;5083205;28;20064;-74
2023/01/04 01:26:10;;;;;;;12.15;2.67;;;;;;;;;;5099239;28;20020;-76
2023/01/04 01:28:36;;;;;;;8.48;1.98;;;;;;;;;;5079987;28;20067;-74
2023/01/04 01:31:09;;;;;;;19.73;3.05;;;;;;;;;;5097403;28;20021;-74
2023/01/04 01:33:36;;;;;;;11.00;2.00;;;;;;;;;;5093219;28;20035;-73
2023/01/04 01:36:02;;;;;;;17.45;2.88;;;;;;;;;;5091009;28;20048;-74
2023/01/04 01:38:28;;;;;;;12.15;2.33;;;;;;;;;;5091386;28;20028;-73
2023/01/04 01:40:54;;;;;;;8.32;1.80;;;;;;;;;;5098091;28;20464;-73
2023/01/04 01:43:21;;;;;;;10.35;2.10;;;;;;;;;;5098588;28;20040;-74
2023/01/04 01:45:49;;;;;;;8.45;2.03;;;;;;;;;;5098595;28;20024;-76
2023/01/04 01:48:17;;;;;;;9.73;2.05;;;;;;;;;;5098051;28;20030;-74
2023/01/04 01:50:47;;;;;;;9.20;1.90;;;;;;;;;;5100407;28;20040;-75
2023/01/04 01:53:13;;;;;;;11.32;2.22;;;;;;;;;;5100229;28;20009;-77
2023/01/04 01:55:39;;;;;;;18.23;3.20;;;;;;;;;;5100334;28;20230;-74
2023/01/04 01:58:07;;;;;;;14.02;2.45;;;;;;;;;;5080746;28;20107;-72
2023/01/04 02:00:33;;;;;;;13.07;2.63;;;;;;;;;;5091722;28;20052;-74
2023/01/04 02:03:17;;;;;;;15.13;2.78;;;;;;;;;;5087886;28;20024;-72
2023/01/04 02:05:44;;;;;;;8.60;2.08;;;;;;;;;;5075762;28;20051;-73
2023/01/04 02:08:11;;;;;;;12.77;2.55;;;;;;;;;;5075169;28;20422;-72
2023/01/04 02:10:37;;;;;;;8.27;2.00;;;;;;;;;;5058043;28;20389;-73
2023/01/04 02:13:05;;;;;;;12.75;2.03;;;;;;;;;;5075803;28;20036;-73
2023/01/04 02:15:35;;;;;;;9.38;2.10;;;;;;;;;;5057782;28;20032;-73
2023/01/04 02:18:08;;;;;;;11.30;2.08;;;;;;;;;;5078892;28;20024;-73
2023/01/04 02:20:43;;;;;;;7.00;2.05;;;;;;;;;;5094779;28;20028;-78
2023/01/04 02:23:22;;;;;;;8.38;2.47;;;;;;;;;;5092898;28;20038;-74
2023/01/04 02:26:06;;;;;;;6.78;1.85;;;;;;;;;;5075329;28;20042;-72
2023/01/04 02:28:51;;;;;;;11.10;2.10;;;;;;;;;;5086949;28;20126;-73
2023/01/04 02:31:20;;;;;;;17.38;2.30;;;;;;;;;;5091148;28;20027;-74
2023/01/04 02:34:05;;;;;;;12.88;2.00;;;;;;;;;;5093264;28;20016;-72
2023/01/04 02:36:44;;;;;;;13.30;1.98;;;;;;;;;;5056795;28;20492;-73
2023/01/04 02:39:10;;;;;;;11.43;1.88;;;;;;;;;;5075139;28;20038;-72
2023/01/04 02:41:56;;;;;;;10.70;1.85;;;;;;;;;;5056956;28;20020;-72
2023/01/04 02:44:56;;;;;;;8.90;2.38;;;;;;;;;;5074884;28;20035;-72
2023/01/04 02:50:43;;;;;;;12.65;2.22;;;;;;;;;;5075908;28;20374;-72
2023/01/04 02:53:11;;;;;;;11.43;2.78;;;;;;;;;;5045042;28;20079;-73
2023/01/04 02:55:37;;;;;;;7.05;1.80;;;;;;;;;;5074975;28;20442;-73
2023/01/04 02:58:26;;;;;;;12.25;2.28;;;;;;;;;;5057482;28;20130;-73
2023/01/04 03:07:10;;;;;;;9.02;2.63;;;;;;;;;;5097109;28;20031;-76
2023/01/04 03:09:39;;;;;;;13.00;2.63;;;;;;;;;;5096737;28;20021;-74
2023/01/04 03:14:59;;;;;;;7.70;1.83;;;;;;;;;;5075198;28;20047;-73
2023/01/04 03:17:26;;;;;;;9.70;1.80;;;;;;;;;;5074465;28;20025;-72
2023/01/04 03:19:53;;;;;;;6.80;1.83;;;;;;;;;;5074466;28;20025;-71
2023/01/04 03:36:19;;;;;;;;;;;;;;;;;;5078094;28;20067;-73
2023/01/04 03:50:37;;;;;;;12.50;1.95;;;;;;;;;;5067443;28;20109;-79
2023/01/04 03:53:03;;;;;;;12.00;1.83;;;;;;;;;;5077774;28;20051;-80
2023/01/04 03:55:30;;;;;;;6.03;1.95;;;;;;;;;;5059891;28;20037;-78
2023/01/04 03:57:56;;;;;;;12.70;2.13;;;;;;;;;;5077712;28;20231;-80
2023/01/04 04:00:22;;;;;;;12.25;2.15;;;;;;;;;;5073609;28;20029;-73
2023/01/04 04:02:48;;;;;;;9.55;2.17;;;;;;;;;;5055337;28;20029;-73
2023/01/04 04:10:45;;;;;;;11.73;2.13;;;;;;;;;;5054998;28;20410;-74
2023/01/04 04:13:11;;;;;;;6.38;1.83;;;;;;;;;;5054269;28;20029;-74
2023/01/04 04:15:38;;;;;;;10.38;2.30;;;;;;;;;;5053578;28;20077;-75
2023/01/04 04:18:04;;;;;;;11.60;2.50;;;;;;;;;;5053805;28;20048;-74
2023/01/04 04:20:30;;;;;;;11.02;2.22;;;;;;;;;;5053493;28;20039;-74
2023/01/04 04:22:56;;;;;;;13.75;2.22;;;;;;;;;;5053901;28;20029;-74
2023/01/04 04:25:22;;;;;;;14.38;2.72;;;;;;;;;;5052848;28;20032;-74
2023/01/04 04:27:48;;;;;;;11.45;2.47;;;;;;;;;;5053047;28;20025;-74
2023/01/04 04:30:14;;;;;;;15.80;2.55;;;;;;;;;;5053679;28;20032;-74
2023/01/04 04:32:40;;;;;;;9.23;2.40;;;;;;;;;;5053158;28;20032;-73
2023/01/04 04:35:07;;;;;;;16.63;2.53;;;;;;;;;;5035273;28;20112;-72
2023/01/04 04:37:33;;;;;;;11.60;2.50;;;;;;;;;;5052569;28;20032;-74
2023/01/04 04:39:59;;;;;;;10.82;2.70;;;;;;;;;;5052868;28;20028;-73
2023/01/04 04:42:25;;;;;;;8.40;2.22;;;;;;;;;;5054930;28;20024;-72
2023/01/04 04:44:52;;;;;;;10.20;2.30;;;;;;;;;;5052457;28;20131;-73
2023/01/04 04:47:17;;;;;;;13.30;2.97;;;;;;;;;;5052474;28;20028;-74
2023/01/04 04:49:43;;;;;;;11.77;2.42;;;;;;;;;;5054196;28;20025;-73
2023/01/04 04:52:09;;;;;;;10.85;2.50;;;;;;;;;;5069655;28;20036;-74
2023/01/04 04:54:35;;;;;;;8.27;2.20;;;;;;;;;;5079634;28;20024;-75
2023/01/04 04:57:01;;;;;;;11.57;2.30;;;;;;;;;;5080904;28;20024;-73
2023/01/04 04:59:27;;;;;;;13.98;2.58;;;;;;;;;;5086828;28;20025;-71
2023/01/04 05:01:53;;;;;;;10.40;2.42;;;;;;;;;;5067673;28;20032;-73
2023/01/04 05:04:19;;;;;;;14.15;2.90;;;;;;;;;;5073160;28;20521;-72
2023/01/04 05:06:46;;;;;;;6.80;2.47;;;;;;;;;;5072115;28;20474;-71
2023/01/04 05:09:15;;;;;;;12.38;2.33;;;;;;;;;;5072856;28;20047;-74
2023/01/04 05:14:26;;;;;;;;;;;;;;;;;;5073171;28;20094;-73
2023/01/04 05:16:52;;;;;;;8.50;2.50;;;;;;;;;;5072063;28;19908;-76
2023/01/04 05:19:18;;;;;;;11.90;2.80;;;;;;;;;;5072495;28;20461;-72
2023/01/04 05:21:44;;;;;;;10.18;2.38;;;;;;;;;;5072651;28;20090;-74
2023/01/04 05:24:11;;;;;;;10.52;2.58;;;;;;;;;;5058910;28;20492;-76
2023/01/04 05:26:37;;;;;;;7.60;2.28;;;;;;;;;;5050512;28;20028;-73
2023/01/04 05:29:03;;;;;;;9.43;2.20;;;;;;;;;;5060071;28;20025;-73
2023/01/04 05:31:29;;;;;;;11.10;2.25;;;;;;;;;;5069030;28;20466;-73
2023/01/04 05:33:55;;;;;;;9.88;2.60;;;;;;;;;;5066178;28;20025;-73
2023/01/04 05:36:21;;;;;;;11.00;2.42;;;;;;;;;;5038942;28;20509;-72
2023/01/04 05:38:47;;;;;;;9.13;2.20;;;;;;;;;;5073768;28;20042;-73
2023/01/04 05:43:58;;;;;;;11.32;2.20;;;;;;;;;;5073002;28;20043;-72
2023/01/04 05:46:23;;;;;;;4.97;2.25;;;;;;;;;;5071487;28;20095;-73
2023/01/04 05:48:49;;;;;;;6.43;2.10;;;;;;;;;;5071882;28;20457;-72
2023/01/04 05:51:15;;;;;;;9.93;2.55;;;;;;;;;;5053883;28;20025;-72
2023/01/04 05:53:41;;;;;;;7.22;2.00;;;;;;;;;;5074284;28;20039;-73
2023/01/04 05:56:07;;;;;;;11.23;2.30;;;;;;;;;;5072593;28;20036;-75
2023/01/04 05:58:33;;;;;;;6.07;1.95;;;;;;;;;;5073236;28;20050;-76
2023/01/04 06:00:59;;;;;;;7.68;1.80;;;;;;;;;;5075905;28;20474;-73
2023/01/04 06:03:25;;;;;;;7.13;2.33;;;;;;;;;;5094400;28;20028;-74
2023/01/04 06:05:51;;;;;;;9.48;2.20;;;17.00;1.00;;;;;;5086578;28;20147;-74
2023/01/04 06:08:17;;;;;;;6.85;2.30;;;;;;;;;;5075700;28;20024;-73
2023/01/04 06:10:44;;;;;;;4.50;1.90;;;;;;;;;;5075434;28;20056;-72
2023/01/04 06:13:10;;;;;;;7.88;2.35;;;;;;;;;;5075243;28;20055;-73
2023/01/04 06:15:36;;;;;;;5.22;2.22;;;;;;;;;;5076502;28;20029;-71
2023/01/04 06:18:01;;;;;;;6.38;2.40;;;;;;;;;;5082665;28;20020;-76
2023/01/04 06:20:27;;;;;;;5.43;2.20;;;;;;;;;;5077254;28;20036;-74
2023/01/04 06:22:53;;;;;;;5.30;2.15;;;;;;;;;;5077870;28;20028;-74
2023/01/04 06:25:19;;;;;;;4.82;2.25;;;;;;;;;;5076212;28;20060;-73
2023/01/04 06:27:45;;;;;;;5.57;2.20;;;;;;;;;;5074763;28;20028;-75
2023/01/04 06:30:11;;;;;;;8.23;2.03;;;;;;;;;;5061318;28;20398;-74
2023/01/04 06:32:37;;;;;;;6.00;2.00;;;;;;;;;;5059046;28;20032;-72
2023/01/04 06:35:03;;;;;;;9.52;2.53;;;;;;;;;;5063121;28;20025;-74
2023/01/04 06:37:29;;;;;;;4.07;2.00;;;;;;;;;;5058234;28;20052;-73
2023/01/04 06:39:55;;;;;;;3.95;2.05;;;;;;;;;;5067464;28;20025;-73
2023/01/04 06:45:06;;;;;;;6.68;2.13;;;;;;;;;;5061849;28;20167;-72
2023/01/04 06:47:32;;;;;;;2.90;1.98;;;;;;;;;;5066513;28;20256;-73
2023/01/04 06:49:58;;;;;;;5.90;2.20;;;;;;;;;;5071350;28;20027;-73
2023/01/04 06:52:24;;;;;;;11.32;2.75;;;;;;;;;;5071616;28;20028;-74
2023/01/04 06:54:50;;;;;;;4.82;1.95;;;;;;;;;;5063037;28;20174;-74
2023/01/04 06:57:16;;;;;;;6.80;2.00;;;;;;;;;;5071206;28;20029;-74
2023/01/04 06:59:41;;;;;;;3.45;2.05;;;;;;;;;;5063906;28;20078;-73
2023/01/04 07:02:07;;;;;;;4.32;2.20;;;;;;;;;;5069221;28;20054;-73
2023/01/04 07:04:33;;;;;;;7.55;2.20;;;;;;;;;;5066768;28;20111;-79
2023/01/04 07:06:59;;;;;;;4.43;2.00;;;;;;;;;;5067316;28;20017;-75
2023/01/04 07:09:25;;;;;;;4.35;2.05;;;;;;;;;;5068636;28;20058;-73
2023/01/04 07:11:51;;;;;;;5.75;2.38;;;;;;;;;;5077170;28;20025;-74
2023/01/04 07:14:18;;;;;;;6.15;2.38;;;;;;;;;;5073446;28;20048;-74
2023/01/04 07:16:43;;;;;;;6.75;2.60;;;;;;;;;;5072023;28;20009;-72
2023/01/04 07:19:09;;;;;;;5.40;2.40;;;;;;;;;;5083248;28;20038;-73
2023/01/04 07:21:35;;;;;;;4.82;2.90;;;;;;;;;;5085534;28;20040;-73
2023/01/04 07:24:01;;;;;;;9.00;4.60;;;;;;;;;;5082719;28;20027;-75
2023/01/04 07:26:27;;;;;;;6.10;2.72;;;;;;;;;;5084576;28;20024;-75
2023/01/04 07:31:38;;;;;;;3.10;2.58;;;;;;;;;;5057495;28;20035;-75
2023/01/04 07:34:03;;;;;;;5.20;2.47;;;;;;;;;;5054148;28;20093;-74
2023/01/04 07:36:29;;;;;;;5.65;3.03;;;;;;;;;;5054086;28;20029;-76
2023/01/04 07:38:55;;;;;;;5.90;2.50;;;;;;;;;;5054684;28;20033;-76
2023/01/04 07:41:21;;;;;;;5.00;3.10;;;;;;;;;;5037430;28;20199;-79
2023/01/04 07:43:47;;;;;;;3.22;2.92;;;;;;;;;;5062296;28;20052;-74
2023/01/04 07:46:13;;;;;;;6.30;3.30;;;;;;;;;;5057504;28;20051;-74
2023/01/04 07:48:39;;;;;;;5.07;3.55;;;;;;;;;;5039444;28;20025;-75
2023/01/04 07:51:05;;;;;;;6.32;3.25;;;;;;;;;;5055675;28;20021;-78
2023/01/04 07:53:34;;;;;;;6.10;3.95;;;;;;;;;;5039357;28;20029;-79
2023/01/04 07:56:00;;;;;;;5.82;3.95;;;;;;;;;;5055675;28;20134;-76
2023/01/04 07:58:30;;;;;;;6.95;4.20;;;;;;;;;;5054868;28;20064;-78
2023/01/04 08:00:56;;;;;;;8.85;4.47;;;;;;;;;;5055394;28;20029;-78
2023/01/04 08:03:22;;;;;;;6.10;4.53;;;;;;;;;;5056073;28;20032;-75
2023/01/04 08:05:48;;;;;;;9.85;4.82;;;;;;;;;;5036760;28;20025;-77
2023/01/04 08:08:14;;;;;;;6.80;5.13;;;;;;;;;;5054893;28;20480;-75
2023/01/04 08:10:40;;;;;;;9.45;5.57;;;;;;;;;;5051855;28;20563;-76
2023/01/04 08:13:06;;;;;;;7.57;5.38;;;;;;;;;;5055184;28;20091;-75
2023/01/04 08:15:32;;;;;;;7.07;4.95;;;;;;;;;;5058828;28;20040;-75
2023/01/04 08:17:58;;;;;;;7.43;5.72;;;;;;;;;;5055475;28;20033;-75
2023/01/04 08:20:24;;;;;;;8.43;5.22;;;;;;;;;;5056136;28;20033;-76
2023/01/04 08:22:50;;;;;;;6.88;5.32;;;;;;;;;;5055926;28;20103;-76
2023/01/04 08:25:16;;;;;;;6.88;5.45;;;;;;;;;;5054414;28;20021;-77
2023/01/04 08:27:42;;;;;;;6.20;5.45;;;;;;;;;;5053662;28;20021;-76
2023/01/04 08:30:08;;;;;;;6.65;5.32;;;;;;;;;;5060880;28;20040;-77
2023/01/04 08:32:34;;;;;;;8.25;5.03;;;;;;;;;;5069669;28;20450;-77
2023/01/04 08:35:00;;;;;;;5.60;4.85;;;;;;;;;;5070941;28;20087;-76
2023/01/04 08:37:27;;;;;;;9.02;5.43;;;;;;;;;;5070125;28;20493;-75
2023/01/04 08:39:53;;;;;;;6.32;5.18;;;;;;;;;;5074331;28;20020;-76
2023/01/04 08:42:19;;;;;;;6.82;4.88;;;;;;;;;;5074340;28;20025;-76
2023/01/04 08:44:46;;;;;;;6.38;4.63;;;;;;;;;;5074216;28;20055;-76
2023/01/04 08:47:11;;;;;;;5.07;3.92;;;;;;;;;;5069513;28;20024;-78
2023/01/04 08:49:37;;;;;;;5.50;4.05;;;;;;;;;;5053219;28;20035;-75
2023/01/04 08:52:03;;;;;;;6.88;3.58;;;;;;;;;;5071684;28;20013;-76
2023/01/04 08:54:29;;;;;;;8.25;4.13;;;;;;;;;;5073653;28;20055;-75
2023/01/04 08:56:55;;;;;;;4.90;3.55;;;;;;;;;;5070364;28;20111;-75
2023/01/04 08:59:21;;;;;;;5.78;3.67;;;;;;;;;;5065841;28;20055;-77
2023/01/04 09:01:47;;;;;;;4.10;3.65;;;;;;;;;;5053110;28;20485;-76
2023/01/04 09:04:13;;;;;;;4.55;3.13;;;;;;;;;;5069207;28;20052;-78
2023/01/04 09:06:39;;;;;;;3.42;3.13;;;;;;;;;;5066078;28;20048;-74
2023/01/04 09:09:05;;;;;;;4.22;3.08;;;;;;;;;;5044915;28;20036;-77
2023/01/04 09:11:31;;;;;;;3.28;2.60;;;;;;;;;;5049614;28;20017;-76
2023/01/04 09:13:58;;;;;;;4.18;2.30;;;;;;;;;;5074110;28;20108;-77
2023/01/04 09:16:24;;;;;;;3.80;2.10;;;;;;;;;;5071296;28;20025;-77
2023/01/04 09:18:50;;;;;;;2.30;2.10;;;;;;;;;;5073354;28;20093;-76
2023/01/04 09:21:18;;;;;;;2.63;2.10;;;;;;;;;;5074317;28;20478;-77
2023/01/04 09:23:44;;;;;;;4.30;2.20;;;;;;;;;;5074927;28;20068;-76
2023/01/04 09:26:12;;;;;;;4.40;1.90;;;;;;;;;;5074323;28;20013;-76
2023/01/04 09:28:38;;;;;;;1.88;1.70;;;;;;;;;;5075123;28;20032;-77
2023/01/04 09:31:05;;;;;;;4.78;2.10;;;;;;;;;;5075309;28;20052;-76
2023/01/04 09:33:31;;;;;;;3.33;2.20;;;;;;;;;;5057686;28;20064;-77
2023/01/04 09:36:01;;;;;;;5.20;2.25;;;;;;;;;;5053352;28;20021;-77
2023/01/04 09:38:27;;;;;;;3.22;1.90;;;;;;;;;;5056067;28;20021;-75
2023/01/04 09:41:00;;;;;;;3.30;2.22;;;;;;;;;;5055986;28;20024;-76
2023/01/04 09:43:28;;;;;;;4.00;1.85;;;;;;;;;;5055802;28;20593;-77
2023/01/04 09:46:04;;;;;;;2.42;1.80;;;;;;;;;;5056620;28;20481;-76
2023/01/04 09:48:32;;;;;;;5.70;1.98;;;;;;;;;;5059173;28;20021;-76
2023/01/04 09:51:00;;;;;;;3.20;1.80;;;;;;;;;;5060618;28;20540;-76
2023/01/04 09:53:38;;;;;;;7.80;1.90;;;;;;;;;;5041270;28;20040;-75
2023/01/04 09:56:16;;;;;;;2.65;1.77;;;;;;;;;;5060327;28;20112;-75
2023/01/04 09:58:43;;;;;;;2.47;1.90;;;;;;;;;;5061158;28;20117;-74
2023/01/04 10:01:21;;;;;;;2.50;2.05;;;;;;;;;;5041598;28;20086;-77
2023/01/04 10:04:05;;;;;;;2.92;1.90;;;;;;;;;;5056937;28;20029;-76
2023/01/04 10:06:34;;;;;;;1.95;1.58;;;;;;;;;;5057407;28;20426;-78
2023/01/04 10:09:06;;;;;;;9.35;4.40;;;;;;;;;;5056169;28;20021;-76
2023/01/04 10:11:44;;;;;;;1.60;1.50;;;;;;;;;;5055886;28;20082;-77
2023/01/04 10:14:29;;;;;;;1.58;1.33;;;;;;;;;;5055394;28;20114;-77
2023/01/04 10:17:14;;;;;;;1.92;1.30;;;;;;;;;;5055372;28;20021;-77
2023/01/04 10:19:58;;;;;;;1.60;1.20;;;;;;;;;;5056895;28;20100;-77
2023/01/04 10:22:43;;;;;;;1.50;1.30;;;;;;;;;;5058354;28;20043;-76
2023/01/04 10:25:25;;;;;;;1.83;1.05;;;;;;;;;;5056417;28;20117;-77
2023/01/04 10:28:06;;;;;;;1.63;1.20;;;;;;;;;;5055815;28;20025;-77
2023/01/04 10:30:41;;;;;;;1.48;1.10;;;;;;;;;;5056285;28;20104;-78
2023/01/04 10:33:11;;;;;;;2.72;0.98;;;;;;;;;;5055852;28;20025;-76
2023/01/04 10:35:39;;;;;;;1.02;0.93;;;;;;;;;;5056171;28;20143;-76
2023/01/04 10:38:11;;;;;;;2.25;1.13;;;;;;;;;;5055558;28;20017;-75
2023/01/04 10:40:38;;;;;;;2.15;1.15;;;;;;;;;;5055251;28;20036;-75
2023/01/04 10:43:07;;;;;;;0.90;0.90;;;;;;;;;;5057799;28;20359;-76
2023/01/04 10:45:45;;;;;;;2.05;1.20;;;;;;;;;;5063410;28;20021;-75
2023/01/04 10:48:30;;;;;;;1.40;1.05;;;;;;;;;;5067720;28;20021;-75
2023/01/04 10:50:57;;;;;;;2.90;1.13;;;;;;;;;;5065125;28;20025;-76
2023/01/04 10:53:23;;;;;;;2.67;1.30;;;;;;;;;;5065393;28;20070;-75
2023/01/04 10:55:56;;;;;;;1.25;1.00;;;;;;;;;;5066980;28;20028;-74
2023/01/04 10:58:36;;;;;;;2.92;1.20;;;;;;;;;;5068457;28;20501;-75
2023/01/04 11:01:22;;;;;;;1.02;0.98;;;;;;;;;;5066055;28;20085;-74
2023/01/04 11:03:51;;;;;;;2.75;1.00;;;;;;;;;;5028738;28;20051;-76
2023/01/04 11:06:27;;;;;;;2.55;1.20;;;;;;;;;;5065057;28;20025;-75
2023/01/04 11:08:57;;;;;;;4.20;1.10;;;;;;;;;;5056188;28;20025;-77
2023/01/04 11:11:23;;;;;;;3.05;2.08;;;;;;;;;;5061589;28;20474;-77
2023/01/04 11:13:49;;;;;;;3.30;1.60;;;;;;;;;;5062709;28;20056;-77
2023/01/04 11:16:15;;;;;;;3.45;1.73;;;;;;;;;;5072227;28;20024;-77
2023/01/04 11:18:43;;;;;;;1.75;1.40;;;;;;;;;;5076035;28;20028;-78
2023/01/04 11:21:11;;;;;;;3.13;1.60;;;;;;;;;;5075991;28;20037;-76
2023/01/04 11:23:37;;;;;;;2.08;1.55;;;;;;;;;;5057333;28;20024;-79
2023/01/04 11:26:18;;;;;;;2.40;1.70;;;;;;;;;;5048696;28;20037;-77
2023/01/04 11:28:51;;;;;;;2.78;1.63;;;;;;;;;;5054740;28;20326;-74
2023/01/04 11:31:22;;;;;;;4.80;1.60;;;;;;;;;;5055425;28;20108;-74
2023/01/04 11:33:51;;;;;;;3.05;1.88;;;;;;;;;;5054683;28;20401;-73
2023/01/04 11:36:32;;;;;;;2.50;1.42;;;;;;;;;;5055046;28;20485;-75
2023/01/04 11:38:58;;;;;;;2.95;1.55;;;;;;;;;;5054829;28;20025;-74
2023/01/04 11:41:24;;;;;;;4.07;1.70;;;;;;;;;;5055499;28;20541;-75
2023/01/04 11:44:02;;;;;;;2.90;1.60;;;;;;;;;;5036956;28;20037;-75
2023/01/04 11:46:29;;;;;;;3.80;1.80;;;;;;;;;;5054616;28;20108;-77
2023/01/04 11:48:55;;;;;;;2.13;1.70;;;;;;;;;;5054685;28;20064;-75
2023/01/04 11:51:25;;;;;;;2.20;1.60;;;;;;;;;;5036591;28;20032;-74
2023/01/04 11:53:57;;;;;;;2.22;1.80;;;;;;;;;;5054266;28;20029;-77
2023/01/04 11:56:23;;;;;;;3.58;1.90;;;;;;;;;;5055573;28;20032;-77
2023/01/04 11:59:12;;;;;;;4.40;2.58;;;;;;;;;;5059544;28;20025;-74
2023/01/04 12:01:40;;;;;;;3.90;1.90;;;;;;;;;;5041570;28;20028;-81
2023/01/04 12:04:10;;;;;;;6.47;1.98;;;;;;;;;;5077852;28;20161;-82
2023/01/04 12:06:38;;;;;;;4.85;2.00;;;;;;;;;;5077624;28;20047;-82
2023/01/04 12:09:04;;;;;;;3.65;1.90;;;;;;;;;;5060011;28;20016;-81
2023/01/04 12:11:35;;;;;;;4.95;1.80;;;;;;;;;;5053052;28;20091;-79
2023/01/04 12:14:01;;;;;;;2.75;1.50;;;;;;;;;;5053292;28;20056;-77
2023/01/04 12:16:27;;;;;;;3.22;1.50;;;;;;;;;;5053670;28;20040;-76
2023/01/04 12:18:53;;;;;;;3.03;1.67;;;;;;;;;;5053970;28;20029;-75
2023/01/04 12:21:20;;;;;;;2.15;1.48;;;;;;;;;;5053664;28;20140;-74
2023/01/04 12:23:47;;;;;;;2.22;1.40;;;;;;;;;;5066258;28;20094;-78
2023/01/04 12:26:13;;;;;;;3.63;1.42;;;;;;;;;;5054246;28;20107;-75
2023/01/04 12:28:41;;;;;;;2.17;1.60;;;;;;;;;;5054295;28;20021;-75
2023/01/04 12:31:19;;;;;;;2.65;1.40;;;;;;;;;;5038916;28;20171;-74
2023/01/04 12:33:45;;;;;;;1.70;1.48;;;;;;;;;;5053555;28;20025;-76
2023/01/04 12:36:12;;;;;;;1.45;1.10;;;;;;;;;;5034850;28;20051;-75
2023/01/04 12:38:59;;;;;;;2.13;1.40;;;;;;;;;;5054052;28;20454;-74
2023/01/04 12:41:34;;;;;;;2.72;1.50;;;;;;;;;;5054419;28;20021;-77
2023/01/04 12:44:00;;;;;;;3.42;1.48;;;;;;;;;;5057890;28;20029;-76
2023/01/04 12:49:23;;;;;;;2.17;1.27;;;;;;;;;;5054682;28;20385;-76
2023/01/04 12:51:49;;;;;;;2.67;1.25;;;;;;;;;;5054635;28;20021;-77
2023/01/04 12:54:23;;;;;;;4.03;1.50;;;;;;;;;;5054218;28;20103;-76
2023/01/04 12:57:08;;;;;;;2.25;0.93;;;;;;;;;;5035935;28;20032;-77
2023/01/04 12:59:35;;;;;;;2.50;1.15;;;;;;;;;;5053164;28;20032;-77
2023/01/04 13:02:13;;;;;;;1.90;1.10;;;;;;;;;;5052870;28;20090;-77
2023/01/04 13:04:40;;;;;;;3.83;1.30;;;;;;;;;;5035598;28;20032;-77
2023/01/04 13:07:28;;;;;;;1.35;1.10;;;;;;;;;;5055221;28;20047;-75
2023/01/04 13:09:59;;;;;;;3.03;1.83;;;;;;;;;;5054144;28;20466;-74
2023/01/04 13:12:24;;;;;;;5.32;1.30;;;;;;;;;;5055710;28;20029;-76
2023/01/04 13:14:53;;;;;;;5.80;1.42;;;;;;;;;;5059555;28;20095;-75
2023/01/04 13:17:19;;;;;;;1.52;1.05;;;;;;;;;;5057171;28;20037;-74
2023/01/04 13:19:45;;;;;;;4.88;1.50;;;;;;;;;;5057737;28;20078;-76
2023/01/04 13:22:26;;;;;;;7.45;1.33;;;;;;;;;;5064510;28;20103;-73
2023/01/04 13:24:53;;;;;;;4.65;1.65;;;;;;;;;;5063178;28;20025;-75
2023/01/04 13:27:20;;;;;;;3.63;1.40;;;;;;;;;;5045222;28;20025;-74
2023/01/04 13:29:46;;;;;;;5.72;1.30;;;;;;;;;;5061151;28;20025;-77
2023/01/04 13:32:23;;;;;;;8.82;1.33;;;;;;;;;;5057344;28;20021;-75
2023/01/04 13:34:59;;;;;;;4.80;1.30;;;;;;;;;;5056944;28;20040;-74
2023/01/04 13:37:29;;;;;;;6.28;1.60;;;;;;;;;;5057648;28;20025;-75
2023/01/04 13:40:00;;;;;;;8.02;1.40;;;;;;;;;;5039325;28;20021;-74
2023/01/04 13:42:28;;;;;;;9.00;1.98;;;;;;;;;;5057294;28;20091;-77
2023/01/04 13:45:00;;;;;;;5.45;1.30;;;;;;;;;;5059814;28;20079;-77
2023/01/04 13:47:27;;;;;;;11.68;1.65;;;;;;;;;;5038833;28;20021;-75
2023/01/04 13:49:53;;;;;;;4.85;1.30;;;;;;;;;;5056540;28;20427;-75
2023/01/04 13:52:22;;;;;;;9.70;1.83;;;;;;;;;;5056888;28;20024;-77
2023/01/04 13:54:48;;;;;;;10.35;2.03;;;;;;;;;;5058525;28;20095;-76
2023/01/04 13:57:19;;;;;;;7.65;1.73;;;;;;;;;;5060950;28;20029;-77
2023/01/04 13:59:45;;;;;;;11.15;2.08;;;;;;;;;;5072480;28;20025;-78
2023/01/04 14:02:16;;;;;;;10.73;1.77;;;;;;;;;;5076128;28;20078;-79
2023/01/04 14:04:42;;;;;;;9.20;2.22;;;;;;;;;;5075273;28;20044;-77
2023/01/04 14:07:08;;;;;;;5.18;1.60;;;;;;;;;;5077646;28;20048;-78
2023/01/04 14:09:36;;;;;;;5.32;1.60;;;;;;;;;;5078127;28;20049;-81
2023/01/04 14:12:12;;;;;;;8.93;2.03;;;;;;;;;;5076520;28;20029;-74
2023/01/04 14:14:50;;;;;;;8.98;2.35;;;;;;;;;;5040432;28;20029;-76
2023/01/04 14:17:16;;;;;;;9.77;2.42;;;;;;;;;;5056694;28;20043;-75
2023/01/04 14:19:43;;;;;;;11.57;3.15;;;;;;;;;;5056439;28;20033;-75
2023/01/04 14:22:18;;;;;;;16.65;4.68;;;;;;;;;;5056812;28;20021;-77
2023/01/04 14:24:44;;;;;;;10.30;2.08;;;;;;;;;;5055174;28;20039;-74
2023/01/04 14:27:30;;;;;;;7.15;1.60;;;;;;;;;;5055913;28;20099;-75
2023/01/04 14:29:56;;;;;;;8.73;1.73;;;;;;;;;;5056831;28;20017;-76
2023/01/04 14:32:22;;;;;;;9.60;2.58;;;;;;;;;;5056858;28;20027;-75
2023/01/04 14:34:48;;;;;;;9.90;1.90;;;;;;;;;;5056036;28;20028;-75
2023/01/04 14:37:14;;;;;;;14.02;2.50;;;;;;;;;;5056940;28;20107;-75
2023/01/04 14:39:40;;;;;;;9.68;1.88;;;;;;;;;;5056408;28;20029;-78
2023/01/04 14:42:22;;;;;;;12.93;2.53;;;;;;;;;;5078886;28;20014;-79
2023/01/04 14:44:48;;;;;;;9.13;2.20;;;;;;;;;;5079279;28;20021;-82
2023/01/04 14:47:14;;;;;;;10.50;2.60;;;;;;;;;;5078214;28;20044;-82
2023/01/04 14:49:40;;;;;;;16.45;2.78;;;;;;;;;;5077422;28;20032;-78
2023/01/04 14:52:10;;;;;;;13.55;2.53;;;;;;;;;;5038948;28;20033;-75
2023/01/04 14:54:38;;;;;;;13.52;2.38;;;;;;;;;;5057289;28;20022;-77
2023/01/04 14:57:04;;;;;;;13.18;2.53;;;;;;;;;;5056502;28;20063;-79
2023/01/04 14:59:30;;;;;;;16.33;2.28;;;;;;;;;;5042090;28;20032;-75
2023/01/04 15:01:57;;;;;;;22.42;3.25;;;;;;;;;;5039439;28;20029;-78
2023/01/04 15:04:23;;;;;;;22.13;3.30;;;;;;;;;;5055631;28;20119;-76
2023/01/04 15:06:54;;;;;;;20.15;3.30;;;;;;;;;;5055176;28;20021;-74
2023/01/04 15:09:20;;;;;;;20.02;3.03;;;;;;;;;;5055950;28;20075;-74
2023/01/04 15:11:46;;;;;;;17.05;3.28;;;;;;;;;;5055592;28;20051;-74
2023/01/04 15:14:12;;;;;;;24.90;3.95;;;;;;;;;;5055899;28;20263;-74
2023/01/04 15:16:38;;;;;;;25.15;4.00;;;;;;;;;;5056425;28;20029;-76
2023/01/04 15:19:04;;;;;;;26.02;3.78;;;;;;;;;;5062266;28;20025;-74
2023/01/04 15:21:30;;;;;;;25.60;3.75;;;;;;;;;;5068416;28;20055;-76
2023/01/04 15:23:56;;;;;;;18.40;3.58;;;;;;;;;;5060178;28;20021;-75
2023/01/04 15:26:22;;;;;;;22.83;3.90;;;;;;;;;;5043600;28;20088;-76
2023/01/04 15:28:48;;;;;;;20.02;3.38;;;;;;;;;;5059837;28;20075;-77
2023/01/04 15:31:14;;;;;;;25.70;3.92;;;;;;;;;;5045369;28;20017;-77
2023/01/04 15:33:40;;;;;;;21.08;3.78;;;;;;;;;;5063431;28;20090;-77
2023/01/04 15:36:09;;;;;;;37.83;11.32;;;;;;;;;;5063421;28;20375;-75
2023/01/04 15:38:35;;;;;;;23.45;4.22;;;;;;;;;;5060326;28;20029;-77
2023/01/04 15:41:02;;;;;;;22.75;3.17;;;;;;;;;;5055469;28;20029;-75
2023/01/04 15:43:28;;;;;;;22.38;4.10;;;;;;;;;;5058472;28;20024;-75